• Join FlightAware (Why Join?)
  • Login
  • US Flag 
Rudolph Flight #1: Arrived! 
06:38PM EST


 

Airport Tracker/Info


-or-


 

Live Flight TrackerFlight Track Log ✈ UAL4202 ✈ 06-Apr-2013 ✈ KCMH - KIAH

Flight Track Log - Related Links

Times and Time Zones

All times are in EDT time to prevent confusion due to time zone crossing. See the UAL4202 flight status page for this flight to view local times or setup timezone preferences in your user account.

Time Position Orientation Groundspeed Altitude Reporting Facility
EDT Latitude Longitude Course Direction KTS MPH feet Rate Location/Type
05:59PM 39.9925 -82.8083 99° East 202 232 4,000  Level Indianapolis Center
06:00PM 39.9533 -82.8339 207° Southwest 202 232 6,800 2,280 Climbing Indianapolis Center
06:01PM 40.0000 -83.2841 270° West  Level FlightAware Approximate
06:01PM 39.9472 -82.9231 265° West 238 274 8,800  Level Indianapolis Center
06:02PM 40.0000 -83.4185 270° West  Level FlightAware Approximate
06:02PM 39.9453 -83.0225 269° West 268 308 10,500  Level Indianapolis Center
06:03PM 40.0000 -83.5528 270° West  Level FlightAware Approximate
06:03PM 39.9400 -83.1389 267° West 308 354 11,500  Level Indianapolis Center
06:04PM 39.9317 -83.2600 265° West 328 377 13,200 1,800 Climbing Indianapolis Center
06:05PM 39.8794 -83.3864 242° Southwest 332 382 15,300 1,740 Climbing Indianapolis Center
06:06PM 39.8339 -83.4956 242° Southwest 335 386 16,800 1,260 Climbing Indianapolis Center
06:07PM 39.7919 -83.5947 241° Southwest 343 395 17,900 1,140 Climbing Indianapolis Center
06:08PM 39.7458 -83.7064 242° Southwest 346 398 19,200 1,260 Climbing Indianapolis Center
06:09PM 39.6892 -83.8408 241° Southwest 359 413 20,600 1,200 Climbing Indianapolis Center
06:10PM 39.6400 -83.9581 241° Southwest 366 421 21,800 1,260 Climbing Indianapolis Center
06:11PM 39.5897 -84.0747 241° Southwest 367 422 23,200 1,500 Climbing Indianapolis Center
06:12PM 39.5344 -84.1872 238° Southwest 366 421 24,900 1,500 Climbing Indianapolis Center
06:14PM 39.4686 -84.2869 229° Southwest 362 417 26,300 1,320 Climbing Indianapolis Center
06:15PM 39.4042 -84.3858 230° Southwest 357 411 27,700 780 Climbing Indianapolis Center
06:16PM 39.3389 -84.4869 230° Southwest 365 420 28,000 120 Climbing Indianapolis Center
06:17PM 39.2686 -84.5942 230° Southwest 385 443 28,000 180 Level Indianapolis Center
06:18PM 39.1828 -84.7239 230° Southwest 402 463 28,400 480 Climbing Indianapolis Center
06:19PM 39.1117 -84.8333 230° Southwest 396 456 29,000 600 Climbing Indianapolis Center
06:20PM 39.0444 -84.9339 229° Southwest 404 465 29,700 1,140 Climbing Indianapolis Center
06:21PM 38.9736 -85.0408 230° Southwest 391 450 31,400 1,740 Climbing Indianapolis Center
06:22PM 38.8939 -85.1600 229° Southwest 374 430 33,400 1,260 Climbing Indianapolis Center
06:23PM 38.8253 -85.2592 228° Southwest 369 425 34,000 240 Climbing Indianapolis Center
06:24PM 38.7128 -85.2650 182° South 421 484 34,000  Level Indianapolis Center
06:25PM 38.6014 -85.2433 171° South 420 483 34,100 480 Climbing Indianapolis Center
06:26PM 38.4903 -85.2186 170° South 406 467 35,000 780 Climbing Indianapolis Center
06:27PM 38.3928 -85.2303 185° South 358 412 35,800 480 Climbing Indianapolis Center
06:28PM 38.3294 -85.3136 226° Southwest 323 372 36,000 60 Climbing Indianapolis Center
06:29PM 38.2717 -85.4081 232° Southwest 331 381 36,000  Level Indianapolis Center
06:30PM 38.1997 -85.5247 232° Southwest 352 405 36,000  Level Indianapolis Center
06:31PM 38.1347 -85.6294 232° Southwest 371 427 36,000  Level Indianapolis Center
06:32PM 38.0672 -85.7381 232° Southwest 385 443 36,000  Level Indianapolis Center
06:33PM 38.0003 -85.8461 232° Southwest 387 445 36,000  Level Indianapolis Center
06:34PM 37.9339 -85.9547 232° Southwest 387 445 36,000  Level Indianapolis Center
06:35PM 37.8661 -86.0603 231° Southwest 384 442 36,000  Level Indianapolis Center
06:36PM 37.7989 -86.1667 231° Southwest 384 442 36,000  Level Indianapolis Center
06:37PM 37.7256 -86.2844 232° Southwest 387 445 36,000  Level Indianapolis Center
06:38PM 37.6589 -86.3894 231° Southwest 383 441 36,000  Level Indianapolis Center
06:39PM 37.5911 -86.4958 231° Southwest 385 443 36,000  Level Indianapolis Center
06:40PM 37.5228 -86.6022 231° Southwest 387 445 36,000  Level Indianapolis Center
06:41PM 37.4553 -86.7089 231° Southwest 387 445 36,000  Level Indianapolis Center
06:42PM 37.3867 -86.8144 231° Southwest 387 445 36,000  Level Indianapolis Center
06:43PM 37.3617 -86.8578 234° Southwest 388 447 36,000  Level Memphis Center
06:44PM 37.2936 -86.9625 231° Southwest 388 447 36,000  Level Memphis Center
06:45PM 37.2258 -87.0694 232° Southwest 388 447 36,000  Level Memphis Center
06:46PM 37.1556 -87.1739 230° Southwest 388 447 36,000  Level Memphis Center
06:47PM 37.0875 -87.2806 231° Southwest 388 447 36,000  Level Memphis Center
06:48PM 37.0192 -87.3872 231° Southwest 388 447 36,000  Level Memphis Center
06:49PM 36.9489 -87.4936 230° Southwest 388 447 36,000  Level Memphis Center
06:50PM 36.8742 -87.6078 231° Southwest 388 447 36,000  Level Memphis Center
06:51PM 36.8056 -87.7114 230° Southwest 388 447 36,000  Level Memphis Center
06:52PM 36.7350 -87.8144 230° Southwest 388 447 36,000  Level Memphis Center
06:53PM 36.6681 -87.9175 231° Southwest 388 447 36,000  Level Memphis Center
06:54PM 36.6014 -88.0203 231° Southwest 388 447 36,000  Level Memphis Center
06:55PM 36.5303 -88.1206 229° Southwest 383 441 36,000  Level Memphis Center
06:56PM 36.4694 -88.2178 232° Southwest 378 435 36,000  Level Memphis Center
06:57PM 36.4022 -88.3175 230° Southwest 378 435 36,000  Level Memphis Center
06:58PM 36.3350 -88.4144 229° Southwest 378 435 36,000  Level Memphis Center
06:59PM 36.2678 -88.5139 230° Southwest 383 441 36,000  Level Memphis Center
07:00PM 36.1983 -88.6158 230° Southwest 383 441 36,000  Level Memphis Center
07:01PM 36.1331 -88.7122 230° Southwest 383 441 36,000  Level Memphis Center
07:02PM 36.0633 -88.8139 230° Southwest 383 441 36,000  Level Memphis Center
07:03PM 35.9958 -88.9125 230° Southwest 383 441 36,000  Level Memphis Center
07:04PM 35.9261 -89.0139 230° Southwest 388 447 36,000  Level Memphis Center
07:05PM 35.8561 -89.1147 229° Southwest 388 447 36,000  Level Memphis Center
07:06PM 35.7864 -89.2156 230° Southwest 388 447 36,000  Level Memphis Center
07:07PM 35.7183 -89.3164 230° Southwest 388 447 36,000  Level Memphis Center
07:08PM 35.6503 -89.4194 231° Southwest 383 441 36,000  Level Memphis Center
07:09PM 35.5803 -89.5197 229° Southwest 388 447 36,000  Level Memphis Center
07:10PM 35.5100 -89.6200 229° Southwest 388 447 36,000  Level Memphis Center
07:11PM 35.4417 -89.7225 231° Southwest 389 448 36,000  Level Memphis Center
07:12PM 35.3711 -89.8247 230° Southwest 389 448 36,000  Level Memphis Center
07:13PM 35.3008 -89.9244 229° Southwest 389 448 36,000  Level Memphis Center
07:14PM 35.2281 -90.0267 229° Southwest 389 448 36,000  Level Memphis Center
07:15PM 35.1553 -90.1311 230° Southwest 394 453 36,000  Level Memphis Center
07:16PM 35.0844 -90.2303 229° Southwest 394 453 36,000  Level Memphis Center
07:17PM 35.0114 -90.3317 229° Southwest 399 459 36,000  Level Memphis Center
07:18PM 34.9406 -90.4356 230° Southwest 404 465 36,000  Level Memphis Center
07:19PM 34.8653 -90.5367 228° Southwest 404 465 36,000  Level Memphis Center
07:20PM 34.7922 -90.6378 229° Southwest 404 465 36,000  Level Memphis Center
07:21PM 34.7189 -90.7411 229° Southwest 409 471 36,000  Level Memphis Center
07:22PM 34.6456 -90.8444 229° Southwest 409 471 36,000  Level Memphis Center
07:23PM 34.5806 -90.9322 228° Southwest 409 471 36,000  Level Memphis Center
07:24PM 34.5069 -91.0350 229° Southwest 409 471 36,000  Level Memphis Center
07:25PM 34.4311 -91.1353 227° Southwest 409 471 36,000  Level Memphis Center
07:26PM 34.3553 -91.2378 228° Southwest 417 480 36,000  Level Memphis Center
07:27PM 34.2817 -91.3400 229° Southwest 406 467 36,000  Level Memphis Center
07:28PM 34.2097 -91.4422 230° Southwest 411 473 36,000  Level Memphis Center
07:29PM 34.1008 -91.5900 228° Southwest 394 453 36,000  Level Fort Worth Center
07:30PM 34.0261 -91.6925 229° Southwest 400 460 36,000  Level Fort Worth Center
07:31PM 33.9514 -91.7925 228° Southwest 405 466 36,000  Level Fort Worth Center
07:32PM 33.8767 -91.8950 229° Southwest 405 466 36,000  Level Fort Worth Center
07:33PM 33.7997 -91.9922 226° Southwest 405 466 36,000  Level Fort Worth Center
07:34PM 33.7225 -92.0944 228° Southwest 405 466 36,000  Level Fort Worth Center
07:35PM 33.6344 -92.1797 219° Southwest 405 466 36,000  Level Fort Worth Center
07:36PM 33.5189 -92.2114 193° South 413 475 36,000  Level Fort Worth Center
07:37PM 33.4014 -92.2483 195° South 418 481 36,000  Level Fort Worth Center
07:38PM 33.2881 -92.2822 194° South 423 487 36,000  Level Fort Worth Center
07:39PM 33.1686 -92.3189 194° South 435 501 36,000  Level Fort Worth Center
07:40PM 33.0489 -92.3553 194° South 440 506 36,000  Level Fort Worth Center
07:41PM 32.9314 -92.3892 194° South 445 512 36,000  Level Fort Worth Center
07:44PM 32.6319 -92.4803 194° South 434 499 36,000  Level Houston Center
07:45PM 32.5200 -92.5172 196° South 438 504 36,000  Level Houston Center
07:46PM 32.4022 -92.5503 193° South 436 502 36,000  Level Houston Center
07:47PM 32.2861 -92.5844 194° South 436 502 36,000  Level Houston Center
07:48PM 32.1467 -92.6261 194° South 434 499 36,000  Level Houston Center
07:49PM 32.0303 -92.6600 194° South 433 498 36,000 -60 Level Houston Center
07:50PM 31.9236 -92.7178 205° Southwest 426 490 35,900  Descending Houston Center
07:51PM 31.8364 -92.8058 221° Southwest 414 476 36,000  Climbing Houston Center
07:52PM 31.7492 -92.8939 221° Southwest 415 478 36,000  Level Houston Center
07:53PM 31.6606 -92.9792 219° Southwest 414 476 36,000  Level Houston Center
07:54PM 31.5719 -93.0644 219° Southwest 415 478 36,000  Level Houston Center
07:55PM 31.4644 -93.1664 219° Southwest 415 478 36,000  Level Houston Center
07:56PM 31.3750 -93.2519 219° Southwest 416 479 36,000  Level Houston Center
07:57PM 31.2858 -93.3378 219° Southwest 415 478 36,000  Level Houston Center
07:58PM 31.1981 -93.4217 219° Southwest 412 474 36,000 -540 Level Houston Center
07:59PM 31.1092 -93.5056 219° Southwest 412 474 35,000 -1,680 Descending Houston Center
08:00PM 31.0294 -93.5822 219° Southwest 384 442 32,600 -2,520 Descending Houston Center
08:01PM 30.9444 -93.6639 219° Southwest 389 448 29,800 -2,760 Descending Houston Center
08:02PM 30.8336 -93.7669 219° Southwest 419 482 27,000 -2,520 Descending Houston Center
08:03PM 30.7397 -93.8569 219° Southwest 434 499 24,700 -2,280 Descending Houston Center
08:04PM 30.6436 -93.9469 219° Southwest 446 513 22,400 -2,280 Descending Houston Center
08:05PM 30.5528 -94.0317 219° Southwest 426 490 20,100 -2,460 Descending Houston Center
08:06PM 30.5058 -94.0764 219° Southwest 393 452 18,900 -2,280 Descending Houston Center
08:06PM 30.4681 -94.1111 218° Southwest 399 459 17,800 -2,100 Descending Houston Center
08:07PM 30.4308 -94.1447 218° Southwest 383 441 17,000 -1,980 Descending Houston Center
08:07PM 30.3847 -94.1883 219° Southwest 389 448 15,800 -1,980 Descending Houston Center
08:08PM 30.3364 -94.2325 218° Southwest 387 445 14,800 -2,280 Descending Houston Center
08:08PM 30.2847 -94.2825 220° Southwest 388 447 13,500 -1,680 Descending Houston Center
08:09PM 30.1981 -94.3839 225° Southwest 355 409 11,800 -1,260 Descending Houston Center
08:10PM 30.1794 -94.4728 256° West 363 418 10,900 -960 Descending Houston Center
08:11PM 30.1564 -94.6022 258° West 360 414 10,000 -420 Descending Houston Center
08:12PM 30.1422 -94.6892 259° West 358 412 10,100 -300 Climbing Houston Center
08:13PM 30.1225 -94.8042 259° West 309 356 9,500 -780 Descending Houston Center
08:14PM 30.1078 -94.8897 259° West 278 320 8,600 -960 Descending Houston Center
08:15PM 30.1053 -94.9758 268° West 272 313 7,600 -960 Descending Houston Center
08:17PM 30.1064 -95.0611 271° West 269 310 6,700 -780 Descending Houston Center
08:18PM 30.1072 -95.1431 271° West 262 302 6,100 -300 Descending Houston Center
08:19PM 30.1067 -95.2256 270° West 259 298 6,100 -240 Level Houston Center
08:20PM 30.1058 -95.3117 269° West 216 249 5,700 -960 Descending Houston Center
08:21PM 30.1061 -95.3842 270° West 221 254 4,200 -1,560 Descending Houston Center
08:22PM 30.0886 -95.4464 252° West 206 237 2,600 -1,080 Descending Houston Center
08:23PM 30.0339 -95.4675 198° South 183 211 1,900 -660 Descending Houston Center